Time;durP1;ratioP1;P1;durP2;ratioP2;P2;SDS_P1;SDS_P2;PMS_P1;PMS_P2;Temp;Humidity;BMP_temperature;BMP_pressure;BME280_temperature;BME280_humidity;BME280_pressure;Samples;Min_cycle;Max_cycle;Signal;HPM_P1;HPM_P2
2023/01/06 00:01:35;;;;;;;;;5.00;5.00;;;;;7.39;100.00;99843.38;6279799;20;2749318;-60
2023/01/06 00:04:04;;;;;;;;;5.50;2.50;;;;;7.47;100.00;99863.44;6297376;20;1811863;-59
2023/01/06 00:06:31;;;;;;;;;6.00;3.00;;;;;7.51;99.87;99858.84;6319214;20;2736804;-60
2023/01/06 00:09:03;;;;;;;;;3.50;3.50;;;;;7.56;99.82;99856.81;6335576;20;1810840;-60
2023/01/06 00:11:32;;;;;;;;;2.50;2.50;;;;;7.75;99.72;99858.63;6335895;20;1810813;-60
2023/01/06 00:14:01;;;;;;;;;4.00;2.00;;;;;7.80;98.93;99851.28;6334629;20;1811866;-59
2023/01/06 00:16:30;;;;;;;;;3.33;3.00;;;;;7.81;98.82;99856.53;6339192;20;1817077;-59
2023/01/06 00:18:59;;;;;;;;;3.00;3.00;;;;;7.87;97.98;99866.06;6336500;20;1816089;-59
2023/01/06 00:21:28;;;;;;;;;2.00;2.00;;;;;7.84;97.91;99866.19;6322848;20;2748287;-59
2023/01/06 00:23:56;;;;;;;;;8.00;4.00;;;;;7.81;97.88;99869.03;6285802;20;2754522;-60
2023/01/06 00:26:25;;;;;;;;;7.00;3.00;;;;;7.79;98.14;99873.56;6303683;20;1810827;-60
2023/01/06 00:28:55;;;;;;;;;5.00;4.00;;;;;7.84;98.06;99876.91;6320667;20;2746158;-60
2023/01/06 00:31:23;;;;;;;;;4.00;3.00;;;;;7.92;97.53;99872.06;6299840;20;1814999;-60
2023/01/06 00:33:51;;;;;;;;;1.50;1.00;;;;;7.92;97.19;99877.41;6322591;20;2742004;-60
2023/01/06 00:36:20;;;;;;;;;8.50;3.00;;;;;7.86;97.44;99869.69;6320678;20;2748420;-60
2023/01/06 00:38:50;;;;;;;;;2.75;2.75;;;;;7.86;97.57;99885.72;6304160;20;1807673;-60
2023/01/06 00:44:06;;;;;;;;;2.50;2.50;;;;;7.78;97.97;99914.63;6319769;20;2749273;-60
2023/01/06 00:46:38;;;;;;;;;3.00;2.40;;;;;7.73;97.86;99912.16;6329066;20;2482703;-59
2023/01/06 00:49:07;;;;;;;;;3.00;2.00;;;;;7.75;97.88;99928.13;6336716;20;1816020;-61
2023/01/06 00:51:38;;;;;;;;;3.00;1.25;;;;;7.78;97.55;99936.00;6334725;20;1808765;-60
2023/01/06 00:54:11;;;;;;;;;2.50;2.00;;;;;7.72;97.33;99930.94;6334339;20;1820193;-59
2023/01/06 00:56:43;;;;;;;;;7.00;5.00;;;;;7.67;97.36;99953.38;6316008;20;2754438;-60
2023/01/06 00:59:16;;;;;;;;;2.00;2.00;;;;;7.59;97.59;99958.22;6290990;20;2746526;-60
2023/01/06 01:01:46;;;;;;;;;7.00;3.00;;;;;7.75;97.23;99962.88;6286799;20;2739993;-60
2023/01/06 01:04:15;;;;;;;;;2.00;2.00;;;;;7.64;97.58;99961.56;6286560;20;2739913;-59
2023/01/06 01:06:46;;;;;;;;;2.00;2.00;;;;;7.52;97.72;99972.78;6318789;20;2746199;-60
2023/01/06 01:09:34;;;;;;;;;5.50;3.00;;;;;7.48;98.42;99972.06;6285494;20;2742046;-60
2023/01/06 01:12:08;;;;;;;;;3.75;2.00;;;;;7.48;98.32;99963.19;6302688;20;1803457;-60
2023/01/06 01:14:47;;;;;;;;;1.75;1.75;;;;;7.44;98.12;99958.91;6336392;20;1803493;-59
2023/01/06 01:17:28;;;;;;;;;2.00;2.00;;;;;7.51;98.32;99965.72;6320113;20;2735736;-59
2023/01/06 01:19:58;;;;;;;;;3.00;3.00;;;;;7.43;98.33;99960.69;6315335;20;2736752;-60
2023/01/06 01:22:29;;;;;;;;;2.00;2.00;;;;;7.41;98.85;99970.59;6314417;20;2750283;-60
2023/01/06 01:24:57;;;;;;;;;6.00;3.00;;;;;7.41;98.70;99967.06;6288801;20;2756527;-60
2023/01/06 01:27:25;;;;;;;;;4.00;4.00;;;;;7.42;98.21;99971.44;6286980;20;2739878;-60
2023/01/06 01:29:52;;;;;;;;;4.00;3.50;;;;;7.40;98.56;99962.66;6318162;20;2752410;-59
2023/01/06 01:32:20;;;;;;;;;3.00;3.00;;;;;7.41;98.45;99970.59;6281490;20;2756553;-60
2023/01/06 01:34:48;;;;;;;;;4.50;2.00;;;;;7.39;98.16;99972.44;6288665;20;2754469;-60
2023/01/06 01:37:16;;;;;;;;;2.00;2.00;;;;;7.45;98.32;99973.97;6303075;20;1816046;-60
2023/01/06 01:39:44;;;;;;;;;3.50;2.50;;;;;7.38;98.40;99969.84;6320145;20;2756707;-60
2023/01/06 01:42:18;;;;;;;;;1.25;1.25;;;;;7.33;98.50;99971.88;6302978;20;1827883;-60
2023/01/06 01:44:54;;;;;;;;;1.00;1.00;;;;;7.33;98.42;99972.72;6334398;20;1802463;-60
2023/01/06 01:47:45;;;;;;;;;2.25;1.00;;;;;7.33;98.17;99974.53;6334834;20;1803244;-60
2023/01/06 01:50:40;;;;;;;;;2.00;2.00;;;;;7.38;97.76;99980.53;6329912;20;1806612;-59
2023/01/06 01:53:21;;;;;;;;;1.00;1.00;;;;;7.33;97.60;99975.41;6329815;20;1803457;-60
2023/01/06 01:55:54;;;;;;;;;2.50;2.00;;;;;7.34;97.54;99976.25;6332041;20;1812973;-60
2023/01/06 01:58:37;;;;;;;;;4.00;2.00;;;;;7.37;97.12;99971.66;6329907;20;1807612;-59
2023/01/06 02:01:09;;;;;;;;;2.00;2.00;;;;;7.44;97.65;99965.09;6333606;20;1805030;-60
2023/01/06 02:03:41;;;;;;;;;4.50;2.25;;;;;7.45;97.22;99964.19;6329686;20;1818222;-60
2023/01/06 02:06:18;;;;;;;;;1.50;1.50;;;;;7.49;96.88;99967.56;6329838;20;1806686;-60
2023/01/06 02:09:31;;;;;;;;;2.00;1.50;;;;;7.50;96.96;99963.09;6316017;20;2727434;-59
2023/01/06 02:12:00;;;;;;;;;1.00;1.00;;;;;7.51;96.89;99971.06;6330362;20;1799343;-60
2023/01/06 02:14:29;;;;;;;;;1.00;1.00;;;;;7.56;96.65;99979.72;6335271;20;1800805;-60
2023/01/06 02:17:52;;;;;;;;;2.00;2.00;;;;;7.60;96.71;99975.97;6331616;20;1811940;-59
2023/01/06 02:20:54;;;;;;;;;1.00;1.00;;;;;7.34;97.47;99978.94;6315746;20;2473219;-61
2023/01/06 02:23:41;;;;;;;;;1.00;1.00;;;;;7.32;98.15;99988.81;6337333;20;1813951;-59
2023/01/06 02:26:53;;;;;;;;;1.00;1.00;;;;;7.34;97.92;99984.28;6332571;20;1796246;-59
2023/01/06 02:30:49;;;;;;;;;0.25;0.25;;;;;7.33;98.54;99998.56;6329067;20;1807480;-60
2023/01/06 02:33:29;;;;;;;;;1.25;1.00;;;;;7.29;98.44;99994.28;6328246;20;1802477;-60
2023/01/06 02:36:39;;;;;;;;;1.00;1.00;;;;;7.23;98.75;99996.28;6331851;20;1798285;-59
2023/01/06 02:39:56;;;;;;;;;1.00;1.00;;;;;7.11;99.79;99996.81;6334369;20;1807699;-59
2023/01/06 02:43:04;;;;;;;;;1.00;1.00;;;;;7.12;99.93;100019.91;6335143;20;1809765;-60
2023/01/06 02:46:11;;;;;;;;;0.25;0.25;;;;;7.12;99.75;100022.59;6332669;20;1801371;-60
2023/01/06 02:48:58;;;;;;;;;2.75;1.00;;;;;7.12;99.87;100032.41;6335060;20;1811847;-59
2023/01/06 02:52:07;;;;;;;;;2.75;1.25;;;;;7.01;100.00;100031.03;6333044;20;1811871;-59
2023/01/06 02:55:12;;;;;;;;;1.00;1.00;;;;;6.97;99.93;100033.91;6334031;20;1810373;-59
2023/01/06 02:58:05;;;;;;;;;5.50;2.00;;;;;7.02;100.00;100037.25;6329645;20;1820112;-60
2023/01/06 03:01:00;;;;;;;;;1.00;1.00;;;;;7.11;99.75;100046.66;6332720;20;1803435;-59
2023/01/06 03:03:34;;;;;;;;;3.00;2.00;;;;;7.09;99.41;100038.72;6316348;20;2746142;-60
2023/01/06 03:06:15;;;;;;;;;3.25;3.00;;;;;7.10;99.80;100044.94;6296093;20;1818137;-60
2023/01/06 03:08:51;;;;;;;;;3.00;1.00;;;;;7.15;99.31;100033.13;6327898;20;1803500;-59
2023/01/06 03:11:19;;;;;;;;;4.00;2.00;;;;;7.11;99.25;100027.97;6306517;20;2748220;-60
2023/01/06 03:13:57;;;;;;;;;2.00;2.00;;;;;7.00;99.62;100034.66;6275772;20;2752807;-60
2023/01/06 03:16:25;;;;;;;;;2.75;1.00;;;;;6.95;100.00;100027.75;6296171;20;1815429;-60
2023/01/06 03:18:57;;;;;;;;;1.00;1.00;;;;;6.97;100.00;100033.91;6307527;20;2721169;-59
2023/01/06 03:21:35;;;;;;;;;1.00;1.00;;;;;6.97;100.00;100031.22;6331315;20;1803540;-59
2023/01/06 03:24:10;;;;;;;;;2.00;2.00;;;;;7.00;100.00;100028.41;6331106;20;1804176;-60
2023/01/06 03:26:39;;;;;;;;;3.00;2.00;;;;;7.01;100.00;100030.19;6314385;20;2754475;-59
2023/01/06 03:29:11;;;;;;;;;3.00;3.00;;;;;7.11;100.00;100026.19;6280750;20;2756498;-59
2023/01/06 03:31:52;;;;;;;;;3.00;3.00;;;;;7.02;100.00;100026.56;6284064;20;2727381;-60
2023/01/06 03:35:13;;;;;;;;;2.25;2.25;;;;;7.04;100.00;100019.38;6332580;20;1813927;-59
2023/01/06 03:38:24;;;;;;;;;3.50;3.50;;;;;7.03;100.00;100023.84;6315842;20;2747123;-59
2023/01/06 03:45:14;;;;;;;;;3.50;3.00;;;;;6.98;100.00;100025.84;6298901;20;1812880;-59
2023/01/06 03:48:26;;;;;;;;;5.00;5.00;;;;;6.92;100.00;100038.56;6313282;20;2746089;-59
2023/01/06 03:51:20;;;;;;;;;3.75;3.00;;;;;6.93;100.00;100040.31;6297212;20;1818102;-59
2023/01/06 03:54:06;;;;;;;;;5.25;3.00;;;;;6.86;100.00;100041.47;6326900;20;1810930;-59
2023/01/06 03:57:06;;;;;;;;;3.00;3.00;;;;;6.96;100.00;100053.53;6314594;20;2743027;-59
2023/01/06 03:59:58;;;;;;;;;4.75;3.00;;;;;6.99;100.00;100058.72;6332604;20;1805516;-60
2023/01/06 04:02:27;;;;;;;;;4.25;3.00;;;;;6.75;100.00;100069.47;6327617;20;1802435;-60
2023/01/06 04:05:23;;;;;;;;;4.00;4.00;;;;;6.85;100.00;100069.13;6325252;20;1817046;-59
2023/01/06 04:07:53;;;;;;;;;5.75;3.75;;;;;6.76;100.00;100068.53;6329709;20;1815309;-59
2023/01/06 04:10:22;;;;;;;;;4.00;4.00;;;;;6.75;100.00;100071.28;6313419;20;2749401;-59
2023/01/06 04:12:50;;;;;;;;;3.00;3.00;;;;;6.66;100.00;100072.50;6280175;20;2738844;-60
2023/01/06 04:15:25;;;;;;;;;6.50;3.50;;;;;6.61;100.00;100071.81;6313990;20;2747145;-59
2023/01/06 04:17:54;;;;;;;;;5.50;5.50;;;;;6.57;100.00;100073.72;6299569;20;1818113;-59
2023/01/06 04:20:28;;;;;;;;;2.25;2.25;;;;;6.56;100.00;100081.78;6330153;20;1815829;-59
2023/01/06 04:22:57;;;;;;;;;6.00;6.00;;;;;6.63;100.00;100080.59;6312493;20;2749216;-60
2023/01/06 04:25:26;;;;;;;;;18.33;15.33;;;;;6.62;100.00;100078.03;6273798;20;3549340;-59
2023/01/06 04:27:55;;;;;;;;;28.00;25.50;;;;;6.44;100.00;100080.44;6279492;20;2837898;-59
2023/01/06 04:30:23;;;;;;;;;30.50;26.00;;;;;6.58;100.00;100080.81;6277208;20;2845261;-59
2023/01/06 04:32:51;;;;;;;;;21.50;21.50;;;;;6.62;100.00;100081.56;6275270;20;2498213;-59
2023/01/06 04:35:20;;;;;;;;;35.00;27.00;;;;;6.61;100.00;100079.81;6279891;20;2848253;-58
2023/01/06 04:37:48;;;;;;;;;12.00;9.00;;;;;6.67;100.00;100084.91;6285343;20;2774235;-59
2023/01/06 04:40:16;;;;;;;;;10.00;7.00;;;;;6.70;100.00;100087.44;6298881;20;1813959;-57
2023/01/06 04:45:33;;;;;;;;;4.50;4.50;;;;;6.73;100.00;100098.00;6302861;20;1809709;-58
2023/01/06 04:48:01;;;;;;;;;4.00;3.00;;;;;6.57;100.00;100096.88;6314456;20;2741959;-58
2023/01/06 04:50:29;;;;;;;;;8.00;4.00;;;;;6.68;100.00;100101.78;6283184;20;2749346;-58
2023/01/06 04:52:57;;;;;;;;;7.00;3.00;;;;;6.62;100.00;100102.91;6288798;20;2744133;-58
2023/01/06 04:55:24;;;;;;;;;3.00;3.00;;;;;6.57;100.00;100110.19;6319468;20;2725356;-59
2023/01/06 04:57:52;;;;;;;;;3.50;3.00;;;;;6.46;100.00;100107.09;6319174;20;2728552;-58
2023/01/06 05:00:20;;;;;;;;;4.50;3.00;;;;;6.50;100.00;100111.34;6316322;20;2737837;-58
2023/01/06 05:02:49;;;;;;;;;3.75;3.00;;;;;6.48;100.00;100115.91;6332672;20;1814984;-58
2023/01/06 05:05:18;;;;;;;;;5.75;3.00;;;;;6.51;100.00;100118.44;6333032;20;1814015;-59
2023/01/06 05:07:47;;;;;;;;;29.00;23.50;;;;;6.65;100.00;100120.59;6312810;20;2840206;-59
2023/01/06 05:10:14;;;;;;;;;49.00;38.50;;;;;6.58;100.00;100123.50;6280613;20;2500957;-59
2023/01/06 05:12:43;;;;;;;;;11.67;10.67;;;;;6.59;100.00;100124.34;6285912;20;3522251;-59
2023/01/06 05:15:11;;;;;;;;;9.50;7.00;;;;;6.73;100.00;100124.69;6319093;20;2756624;-59
2023/01/06 05:17:39;;;;;;;;;6.50;5.00;;;;;6.60;100.00;100129.63;6288836;20;2748198;-59
2023/01/06 05:20:08;;;;;;;;;2.00;2.00;;;;;6.63;100.00;100125.09;6303292;20;1809845;-59
2023/01/06 05:22:36;;;;;;;;;8.00;6.00;;;;;6.57;100.00;100124.41;6317583;20;2742225;-59
2023/01/06 05:25:05;;;;;;;;;3.50;3.50;;;;;6.70;100.00;100121.28;6285253;20;2751369;-59
2023/01/06 05:27:33;;;;;;;;;3.50;3.50;;;;;6.73;100.00;100121.16;6303760;20;1815032;-55
2023/01/06 05:30:01;;;;;;;;;7.00;5.00;;;;;6.68;100.00;100129.31;6316948;20;2750377;-58
2023/01/06 05:32:29;;;;;;;;;5.50;4.00;;;;;6.62;100.00;100131.38;6287126;20;2754578;-59
2023/01/06 05:34:56;;;;;;;;;8.00;4.00;;;;;6.66;100.00;100141.88;6286958;20;2745057;-59
2023/01/06 05:37:24;;;;;;;;;3.00;3.00;;;;;6.59;100.00;100164.38;6285516;20;2732609;-59
2023/01/06 05:39:52;;;;;;;;;3.00;3.00;;;;;6.55;100.00;100170.75;6316447;20;2735690;-58
2023/01/06 05:42:20;;;;;;;;;4.00;4.00;;;;;6.59;100.00;100181.25;6303396;20;1816039;-59
2023/01/06 05:44:48;;;;;;;;;8.00;4.00;;;;;6.45;100.00;100185.34;6320168;20;2747274;-59
2023/01/06 05:47:15;;;;;;;;;9.00;5.00;;;;;6.44;100.00;100183.63;6285310;20;2756568;-58
2023/01/06 05:49:43;;;;;;;;;5.50;5.00;;;;;6.42;100.00;100190.78;6281998;20;2752463;-58
2023/01/06 05:52:13;;;;;;;;;8.00;5.50;;;;;6.36;100.00;100190.09;6286145;20;2745135;-58
2023/01/06 05:54:40;;;;;;;;;11.00;8.00;;;;;6.35;100.00;100191.03;6316172;20;2759647;-59
2023/01/06 05:57:09;;;;;;;;;6.00;6.00;;;;;6.40;100.00;100181.97;6285327;20;2745185;-58
2023/01/06 05:59:37;;;;;;;;;4.00;4.00;;;;;6.37;100.00;100183.84;6287125;20;2749368;-58
2023/01/06 06:02:05;;;;;;;;;5.00;5.00;;;;;6.45;100.00;100175.56;6282101;20;2742432;-59
2023/01/06 06:04:33;;;;;;;;;4.00;4.00;;;;;6.46;100.00;100176.44;6334252;20;1811260;-58
2023/01/06 06:07:01;;;;;;;;;9.00;9.00;;;;;6.46;100.00;100171.97;6315427;20;2735727;-58
2023/01/06 06:09:29;;;;;;;;;12.50;10.00;;;;;6.46;100.00;100173.75;6282768;20;2796143;-59
2023/01/06 06:11:57;;;;;;;;;8.50;6.00;;;;;6.36;100.00;100182.09;6282875;20;2748235;-58
2023/01/06 06:14:26;;;;;;;;;10.40;9.40;;;;;6.49;100.00;100179.84;6308184;20;2784824;-58
2023/01/06 06:16:56;;;;;;;;;8.00;8.00;;;;;6.53;100.00;100183.25;6309634;20;2743038;-59
2023/01/06 06:19:25;;;;;;;;;10.00;8.40;;;;;6.44;100.00;100192.47;6337431;20;2744069;-58
2023/01/06 06:21:53;;;;;;;;;14.00;10.00;;;;;6.47;100.00;100196.84;6317627;20;2787872;-58
2023/01/06 06:24:21;;;;;;;;;15.00;12.00;;;;;6.46;100.00;100205.78;6283799;20;2794045;-59
2023/01/06 06:26:49;;;;;;;;;8.50;8.50;;;;;6.44;100.00;100200.47;6299498;20;1805687;-58
2023/01/06 06:29:19;;;;;;;;;8.20;7.00;;;;;6.53;100.00;100205.50;6341726;20;2736835;-58
2023/01/06 06:31:47;;;;;;;;;7.00;4.00;;;;;6.52;100.00;100200.19;6312232;20;2754502;-58
2023/01/06 06:34:17;;;;;;;;;8.67;8.67;;;;;6.50;100.00;100202.03;6326790;20;1806367;-59
2023/01/06 06:36:46;;;;;;;;;8.00;6.00;;;;;6.49;100.00;100203.00;6302056;20;1814905;-59
2023/01/06 06:39:14;;;;;;;;;8.75;6.75;;;;;6.41;100.00;100207.72;6336082;20;1818107;-59
2023/01/06 06:41:43;;;;;;;;;6.00;6.00;;;;;6.44;100.00;100213.81;6333103;20;1810839;-59
2023/01/06 06:44:10;;;;;;;;;8.00;7.00;;;;;6.48;100.00;100199.47;6318584;20;2739864;-58
2023/01/06 06:46:38;;;;;;;;;6.00;6.00;;;;;6.45;100.00;100201.34;6315145;20;2745109;-58
2023/01/06 06:49:06;;;;;;;;;5.00;5.00;;;;;6.54;100.00;100201.03;6287066;20;2748224;-58
2023/01/06 06:51:34;;;;;;;;;10.00;8.00;;;;;6.54;100.00;100211.69;6299835;20;1803534;-58
2023/01/06 06:54:04;;;;;;;;;13.00;13.00;;;;;6.53;100.00;100208.16;6318587;20;2801417;-58
2023/01/06 06:56:32;;;;;;;;;14.00;12.00;;;;;6.60;100.00;100201.66;6283051;20;2781543;-58
2023/01/06 06:59:01;;;;;;;;;11.20;10.80;;;;;6.71;100.00;100214.59;6309298;20;2786726;-58
2023/01/06 07:01:30;;;;;;;;;15.00;11.50;;;;;6.71;100.00;100219.06;6281899;20;2796251;-58
2023/01/06 07:03:58;;;;;;;;;9.50;8.00;;;;;6.71;100.00;100217.25;6287008;20;2755843;-57
2023/01/06 07:06:30;;;;;;;;;12.50;9.00;;;;;6.76;100.00;100217.97;6284199;20;2752368;-58
2023/01/06 07:08:57;;;;;;;;;8.00;7.00;;;;;6.91;100.00;100215.66;6282333;20;2732573;-58
2023/01/06 07:11:25;;;;;;;;;9.50;6.50;;;;;6.99;100.00;100218.91;6313607;20;2756613;-58
2023/01/06 07:13:53;;;;;;;;;8.00;6.00;;;;;6.98;99.51;100227.84;6288055;20;2748226;-58
2023/01/06 07:16:24;;;;;;;;;10.00;8.00;;;;;6.99;99.17;100226.91;6313034;20;2764888;-58
2023/01/06 07:18:52;;;;;;;;;13.00;8.00;;;;;7.08;99.46;100231.88;6276541;20;2769119;-58
2023/01/06 07:21:20;;;;;;;;;10.00;8.50;;;;;7.29;98.94;100240.00;6279986;20;2763835;-58
2023/01/06 07:23:48;;;;;;;;;25.00;19.00;;;;;7.19;98.61;100236.84;6283168;20;2830637;-58
2023/01/06 07:26:15;;;;;;;;;7.00;5.00;;;;;7.09;99.00;100236.31;6284173;20;2750372;-58
2023/01/06 07:28:43;;;;;;;;;6.00;6.00;;;;;7.27;98.44;100242.75;6284458;20;2742004;-58
2023/01/06 07:31:11;;;;;;;;;13.50;9.00;;;;;7.29;98.32;100242.66;6313660;20;2755471;-59
2023/01/06 07:33:39;;;;;;;;;8.00;7.00;;;;;7.28;98.21;100252.50;6279712;20;2753398;-58
2023/01/06 07:36:08;;;;;;;;;9.00;7.00;;;;;7.43;97.62;100256.38;6282930;20;2731733;-59
2023/01/06 07:38:35;;;;;;;;;8.00;8.00;;;;;7.51;96.92;100264.94;6318093;20;2743019;-58
2023/01/06 07:41:03;;;;;;;;;10.00;7.00;;;;;7.54;96.33;100263.97;6311205;20;2755529;-58
2023/01/06 07:43:32;;;;;;;;;8.00;7.25;;;;;7.54;95.68;100263.97;6302126;20;1814939;-57
2023/01/06 07:45:59;;;;;;;;;7.00;5.00;;;;;7.63;95.49;100258.22;6314045;20;2741984;-58
2023/01/06 07:48:27;;;;;;;;;7.50;4.00;;;;;7.69;94.48;100260.69;6285892;20;2751449;-58
2023/01/06 07:50:57;;;;;;;;;6.50;4.00;;;;;7.79;93.88;100259.34;6278467;20;2751396;-58
2023/01/06 07:53:26;;;;;;;;;7.50;7.50;;;;;7.83;93.51;100252.09;6303964;20;1825401;-59
2023/01/06 07:55:55;;;;;;;;;3.00;3.00;;;;;7.90;92.50;100253.59;6326716;20;1804577;-58
2023/01/06 07:58:23;;;;;;;;;9.00;4.50;;;;;8.10;92.04;100258.06;6314519;20;2738917;-58
2023/01/06 08:00:51;;;;;;;;;12.50;8.50;;;;;8.03;91.00;100252.13;6277264;20;2754648;-57
2023/01/06 08:03:18;;;;;;;;;5.00;4.50;;;;;7.96;90.87;100252.47;6280689;20;2748256;-59
2023/01/06 08:05:46;;;;;;;;;3.00;3.00;;;;;8.15;90.25;100264.09;6285548;20;2733614;-58
2023/01/06 08:08:14;;;;;;;;;4.00;4.00;;;;;8.27;89.51;100260.06;6316130;20;2752611;-58
2023/01/06 08:10:43;;;;;;;;;5.00;5.00;;;;;8.31;88.64;100267.00;6278171;20;2745111;-58
2023/01/06 08:13:11;;;;;;;;;7.00;5.00;;;;;8.29;88.20;100274.22;6284889;20;2752379;-58
2023/01/06 08:15:39;;;;;;;;;6.00;3.75;;;;;8.44;88.07;100270.06;6295580;20;1798370;-58
2023/01/06 08:18:08;;;;;;;;;3.50;3.50;;;;;8.51;87.48;100276.88;6313512;20;2752496;-59
2023/01/06 08:20:35;;;;;;;;;4.00;4.00;;;;;8.57;86.28;100273.94;6282916;20;2747373;-58
2023/01/06 08:23:03;;;;;;;;;3.00;2.00;;;;;8.53;86.53;100270.53;6313792;20;2742056;-58
2023/01/06 08:25:32;;;;;;;;;14.00;14.00;;;;;8.47;86.72;100273.44;6280288;20;3535694;-59
2023/01/06 08:28:00;;;;;;;;;5.50;5.50;;;;;8.78;85.62;100278.31;6320591;20;2738827;-59
2023/01/06 08:30:28;;;;;;;;;11.00;5.50;;;;;8.73;85.36;100274.13;6317792;20;2763934;-58
2023/01/06 08:32:58;;;;;;;;;13.00;7.50;;;;;8.67;85.49;100283.31;6286712;20;2771252;-59
2023/01/06 08:35:26;;;;;;;;;10.00;8.00;;;;;8.81;85.29;100277.31;6288813;20;2764940;-59
2023/01/06 08:37:55;;;;;;;;;9.00;9.00;;;;;9.06;84.77;100281.56;6307220;20;1816016;-58
2023/01/06 08:40:23;;;;;;;;;11.50;10.00;;;;;9.10;84.47;100281.34;6314217;20;2786139;-58
2023/01/06 08:42:52;;;;;;;;;4.25;4.00;;;;;9.10;84.48;100284.03;6307893;20;1817086;-58
2023/01/06 08:45:20;;;;;;;;;5.50;4.00;;;;;9.02;83.54;100287.06;6320525;20;2752459;-58
2023/01/06 08:47:47;;;;;;;;;2.00;2.00;;;;;8.82;83.90;100289.78;6289261;20;2752396;-59
2023/01/06 08:50:15;;;;;;;;;5.00;4.00;;;;;9.11;83.73;100290.25;6284886;20;2754623;-59
2023/01/06 08:52:43;;;;;;;;;4.00;4.00;;;;;9.14;82.83;100280.28;6285181;20;2741917;-59
2023/01/06 08:55:10;;;;;;;;;5.00;5.00;;;;;8.91;82.66;100277.78;6284340;20;2748232;-58
2023/01/06 08:57:38;;;;;;;;;4.50;3.00;;;;;8.95;83.16;100285.63;6284605;20;2748243;-59
2023/01/06 09:00:08;;;;;;;;;3.00;3.00;;;;;9.06;82.70;100281.56;6298602;20;1810378;-59
2023/01/06 09:02:36;;;;;;;;;3.50;3.50;;;;;9.11;82.22;100276.84;6319837;20;2739220;-59
2023/01/06 09:05:05;;;;;;;;;2.75;2.75;;;;;9.27;82.03;100275.22;6302456;20;1804135;-59
2023/01/06 09:07:33;;;;;;;;;6.00;4.00;;;;;9.25;81.32;100276.25;6310449;20;2756623;-58
2023/01/06 09:10:01;;;;;;;;;2.50;2.50;;;;;9.44;81.55;100277.97;6280783;20;2756611;-59
2023/01/06 09:12:28;;;;;;;;;2.50;2.00;;;;;9.36;80.41;100272.09;6287031;20;2744047;-59
2023/01/06 09:14:56;;;;;;;;;5.00;4.00;;;;;9.61;80.13;100277.19;6289375;20;2752481;-59
2023/01/06 09:17:25;;;;;;;;;3.00;3.00;;;;;9.58;78.72;100271.06;6303891;20;1806733;-59
2023/01/06 09:19:52;;;;;;;;;5.00;5.00;;;;;9.58;79.67;100279.13;6319206;20;2753406;-58
2023/01/06 09:22:20;;;;;;;;;4.00;3.00;;;;;9.53;78.89;100289.19;6286996;20;2738852;-59
2023/01/06 09:24:48;;;;;;;;;5.00;4.00;;;;;9.92;77.19;100304.31;6287952;20;2754622;-60
2023/01/06 09:27:15;;;;;;;;;9.50;6.50;;;;;9.66;78.03;100303.75;6287597;20;2753440;-60
2023/01/06 09:29:43;;;;;;;;;12.00;5.00;;;;;9.52;77.20;100300.88;6282505;20;2780509;-60
2023/01/06 09:32:11;;;;;;;;;15.00;11.50;;;;;9.56;77.47;100305.16;6285515;20;2796143;-60
2023/01/06 09:34:38;;;;;;;;;10.50;7.00;;;;;9.52;77.12;100320.50;6287524;20;2758657;-60
2023/01/06 09:37:06;;;;;;;;;12.00;8.00;;;;;9.47;76.63;100308.25;6282237;20;2760815;-59
2023/01/06 09:39:36;;;;;;;;;20.50;12.50;;;;;9.39;75.92;100312.16;6282851;20;2825658;-60
2023/01/06 09:42:43;;;;;;;;;7.00;6.50;;;;;9.63;75.96;100298.53;6282197;20;2741942;-60
2023/01/06 09:45:18;;;;;;;;;12.80;9.80;;;;;9.81;73.20;100308.38;6310100;20;2762916;-58
2023/01/06 09:47:55;;;;;;;;;7.00;6.80;;;;;9.79;73.30;100296.84;6309107;20;2739902;-59
2023/01/06 09:50:48;;;;;;;;;15.25;13.00;;;;;9.85;71.81;100298.38;6339307;20;2805629;-60
2023/01/06 09:53:25;;;;;;;;;4.00;4.00;;;;;9.62;72.04;100294.13;6286841;20;2744088;-60
2023/01/06 09:56:06;;;;;;;;;3.00;3.00;;;;;9.44;72.11;100299.41;6284823;20;2752498;-60
2023/01/06 09:58:59;;;;;;;;;6.00;4.50;;;;;9.60;71.65;100304.06;6287389;20;2752356;-60
2023/01/06 10:01:39;;;;;;;;;11.00;7.14;;;;;9.36;72.24;100306.09;6324423;20;1802413;-60
2023/01/06 10:04:34;;;;;;;;;39.50;30.00;;;;;9.40;73.95;100303.19;6313789;20;2860812;-60
2023/01/06 10:07:27;;;;;;;;;26.50;20.50;;;;;9.34;72.89;100306.13;6282001;20;2483616;-60
2023/01/06 10:10:20;;;;;;;;;30.00;20.00;;;;;9.63;72.28;100303.91;6282731;20;2836950;-60
2023/01/06 10:13:37;;;;;;;;;15.50;13.50;;;;;9.50;71.14;100300.06;6287454;20;2800306;-59
2023/01/06 10:17:03;;;;;;;;;48.00;28.67;;;;;9.56;72.42;100295.28;6285492;20;3629544;-60
2023/01/06 10:20:17;;;;;;;;;26.00;22.00;;;;;9.74;70.92;100300.69;6313039;20;2845063;-61
2023/01/06 10:23:18;;;;;;;;;27.00;22.00;;;;;10.11;71.95;100299.78;6286148;20;2847147;-60
2023/01/06 10:26:13;;;;;;;;;26.33;18.67;;;;;9.86;70.92;100305.47;6318787;20;2856496;-60
2023/01/06 10:28:52;;;;;;;;;12.00;7.00;;;;;9.88;70.22;100304.47;6317195;20;2758607;-60
2023/01/06 10:31:33;;;;;;;;;9.00;7.00;;;;;9.94;69.66;100305.09;6282313;20;2746166;-60
2023/01/06 10:34:04;;;;;;;;;8.00;6.00;;;;;9.98;69.46;100309.34;6285734;20;2746118;-61
2023/01/06 10:36:44;;;;;;;;;11.50;10.00;;;;;10.21;70.03;100314.47;6280491;20;2786758;-60
2023/01/06 10:39:21;;;;;;;;;6.25;3.50;;;;;9.88;68.90;100304.47;6301496;20;1817041;-60
2023/01/06 10:45:12;;;;;;;;;7.00;3.00;;;;;10.64;66.98;100293.53;6286271;20;2744080;-60
2023/01/06 10:47:43;;;;;;;;;30.00;24.00;;;;;10.71;66.72;100294.91;6283500;20;2856528;-61
2023/01/06 10:50:17;;;;;;;;;7.00;5.50;;;;;10.62;65.31;100294.56;6280655;20;2750295;-60
2023/01/06 10:52:47;;;;;;;;;24.33;19.67;;;;;10.90;66.33;100294.84;6283974;20;3562755;-60
2023/01/06 10:55:56;;;;;;;;;14.00;9.50;;;;;10.75;65.66;100296.50;6322530;20;2778462;-60
2023/01/06 10:59:10;;;;;;;;;26.50;18.00;;;;;10.82;66.73;100291.69;6280675;20;2846214;-60
2023/01/06 11:01:52;;;;;;;;;9.00;9.00;;;;;10.77;64.20;100294.63;6278054;20;2754541;-60
2023/01/06 11:04:24;;;;;;;;;33.67;27.00;;;;;10.80;65.38;100288.22;6283549;20;2857735;-61
2023/01/06 11:06:58;;;;;;;;;27.00;25.00;;;;;10.76;64.97;100292.00;6317849;20;2724269;-61
2023/01/06 11:09:42;;;;;;;;;22.00;20.50;;;;;10.84;65.13;100287.09;6275229;20;2839999;-60
2023/01/06 11:12:27;;;;;;;;;25.50;20.00;;;;;10.99;64.85;100288.09;6280438;20;2845086;-60
2023/01/06 11:15:04;;;;;;;;;7.00;5.00;;;;;11.05;65.02;100287.75;6284628;20;2748217;-60
2023/01/06 11:17:32;;;;;;;;;8.00;4.50;;;;;11.08;64.51;100290.28;6282754;20;2751462;-60
2023/01/06 11:20:32;;;;;;;;;2.00;2.00;;;;;10.72;64.41;100291.31;6283330;20;2750302;-60
2023/01/06 11:23:21;;;;;;;;;7.00;4.00;;;;;10.91;64.81;100285.81;6284644;20;2738844;-60
2023/01/06 11:26:11;;;;;;;;;3.00;3.00;;;;;10.48;64.07;100281.84;6283527;20;2750363;-60
2023/01/06 11:28:42;;;;;;;;;3.50;3.50;;;;;10.73;64.21;100284.97;6285307;20;2741963;-61
2023/01/06 11:31:18;;;;;;;;;25.50;23.00;;;;;10.70;65.28;100282.47;6280651;20;2500284;-60
2023/01/06 11:34:18;;;;;;;;;9.00;8.00;;;;;10.70;64.31;100282.47;6284066;20;2735696;-60
2023/01/06 11:36:50;;;;;;;;;6.57;5.00;;;;;10.60;64.96;100281.19;6326042;20;3463831;-60
2023/01/06 11:39:34;;;;;;;;;14.20;13.40;;;;;10.72;66.66;100285.06;6337359;20;2783626;-60
2023/01/06 11:42:13;;;;;;;;;32.33;27.33;;;;;10.96;67.72;100281.06;6281571;20;3603376;-60
2023/01/06 11:44:43;;;;;;;;;6.00;4.50;;;;;10.83;68.09;100287.19;6286035;20;2744153;-60
2023/01/06 11:47:25;;;;;;;;;7.00;5.50;;;;;10.61;68.07;100279.38;6286296;20;2740932;-61
2023/01/06 11:49:59;;;;;;;;;33.67;31.33;;;;;10.67;68.38;100279.94;6281399;20;3604520;-60
2023/01/06 11:52:32;;;;;;;;;16.33;12.00;;;;;10.98;68.06;100275.63;6278487;20;3542000;-60
2023/01/06 11:55:21;;;;;;;;;15.50;14.00;;;;;10.79;67.83;100275.72;6315971;20;2794173;-60
2023/01/06 11:58:11;;;;;;;;;10.33;8.67;;;;;10.98;67.42;100265.75;6278602;20;2767081;-60
2023/01/06 12:01:27;;;;;;;;;20.50;18.00;;;;;11.08;67.55;100268.78;6306867;20;2831556;-61
2023/01/06 12:04:20;;;;;;;;;15.00;15.00;;;;;11.28;66.92;100266.84;6280358;20;3526417;-60